Time;durP1;ratioP1;P1;durP2;ratioP2;P2;SDS_P1;SDS_P2;PMS_P1;PMS_P2;Temp;Humidity;BMP_temperature;BMP_pressure;BME280_temperature;BME280_humidity;BME280_pressure;Samples;Min_cycle;Max_cycle;Signal;HPM_P1;HPM_P2
2023/09/04 00:00:40;;;;;;;3.30;3.00;;;15.60;99.90;;;;;;5044319;28;20045;-54
2023/09/04 00:03:06;;;;;;;3.15;2.72;;;15.50;99.90;;;;;;5046185;28;20044;-55
2023/09/04 00:05:34;;;;;;;3.40;3.10;;;15.50;99.90;;;;;;5050291;28;20478;-55
2023/09/04 00:08:01;;;;;;;4.90;4.00;;;15.50;99.90;;;;;;5044480;28;20115;-54
2023/09/04 00:10:27;;;;;;;4.28;3.70;;;15.40;99.90;;;;;;5042511;28;20049;-56
2023/09/04 00:12:52;;;;;;;6.95;5.38;;;15.40;99.90;;;;;;5046238;28;20059;-55
2023/09/04 00:15:18;;;;;;;3.17;2.88;;;15.40;99.90;;;;;;5041402;28;20047;-56
2023/09/04 00:17:49;;;;;;;2.40;2.20;;;15.30;99.90;;;;;;5046098;28;20077;-54
2023/09/04 00:20:15;;;;;;;3.15;2.45;;;15.30;99.90;;;;;;5040401;28;20373;-57
2023/09/04 00:22:41;;;;;;;2.80;2.60;;;15.20;99.90;;;;;;5034296;28;20154;-55
2023/09/04 00:25:07;;;;;;;3.17;2.80;;;15.20;99.90;;;;;;5033716;28;20044;-54
2023/09/04 00:27:32;;;;;;;2.83;2.50;;;15.10;99.90;;;;;;5036489;28;20119;-55
2023/09/04 00:29:58;;;;;;;2.55;2.35;;;15.10;99.90;;;;;;5040646;28;20240;-56
2023/09/04 00:32:24;;;;;;;2.55;2.05;;;15.00;99.90;;;;;;5037352;28;20047;-57
2023/09/04 00:34:50;;;;;;;1.50;1.40;;;15.00;99.90;;;;;;5032572;28;20729;-56
2023/09/04 00:37:15;;;;;;;1.73;1.40;;;14.90;99.90;;;;;;5037910;28;20091;-55
2023/09/04 00:39:41;;;;;;;1.80;1.58;;;14.90;99.90;;;;;;5037810;28;20560;-56
2023/09/04 00:42:09;;;;;;;1.30;1.20;;;14.80;99.90;;;;;;5044631;28;20516;-54
2023/09/04 00:44:34;;;;;;;2.30;1.65;;;14.70;99.90;;;;;;5042337;28;20047;-57
2023/09/04 00:47:01;;;;;;;4.63;1.67;;;14.60;99.90;;;;;;5040183;28;20029;-55
2023/09/04 00:49:28;;;;;;;2.65;2.45;;;14.60;99.90;;;;;;5041907;28;20098;-55
2023/09/04 00:51:56;;;;;;;4.63;2.70;;;14.50;99.90;;;;;;5042299;28;20040;-55
2023/09/04 00:54:23;;;;;;;5.28;2.80;;;14.40;99.90;;;;;;5034305;28;20045;-55
2023/09/04 00:56:51;;;;;;;3.33;2.97;;;14.40;99.90;;;;;;5045335;28;20051;-56
2023/09/04 00:59:23;;;;;;;5.25;4.00;;;14.40;99.90;;;;;;5038123;28;20055;-55
2023/09/04 01:01:49;;;;;;;3.53;3.22;;;14.30;99.90;;;;;;5025577;28;20041;-55
2023/09/04 01:04:15;;;;;;;5.13;3.30;;;14.20;99.90;;;;;;5022575;28;20041;-56
2023/09/04 01:06:41;;;;;;;4.30;3.90;;;14.20;99.90;;;;;;5032859;28;20695;-54
2023/09/04 01:09:08;;;;;;;3.90;3.60;;;14.20;99.90;;;;;;5036875;28;20112;-54
2023/09/04 01:11:45;;;;;;;3.67;3.35;;;14.20;99.90;;;;;;5036166;28;20665;-55
2023/09/04 01:14:13;;;;;;;3.67;3.38;;;14.20;99.90;;;;;;5038571;28;20041;-56
2023/09/04 01:16:39;;;;;;;3.33;3.00;;;14.20;99.90;;;;;;5036077;28;20041;-55
2023/09/04 01:19:10;;;;;;;4.00;3.10;;;14.20;99.90;;;;;;5035532;28;20406;-55
2023/09/04 01:21:37;;;;;;;3.97;3.33;;;14.20;99.90;;;;;;5032740;28;20064;-55
2023/09/04 01:24:03;;;;;;;3.63;3.33;;;14.10;99.90;;;;;;5036941;28;20045;-52
2023/09/04 01:26:35;;;;;;;4.75;3.95;;;14.10;99.90;;;;;;5028161;28;20037;-54
2023/09/04 01:29:06;;;;;;;4.33;3.60;;;14.10;99.90;;;;;;5035129;28;20479;-53
2023/09/04 01:31:36;;;;;;;3.92;3.53;;;14.10;99.90;;;;;;5042150;28;20336;-55
2023/09/04 01:34:18;;;;;;;3.63;3.33;;;14.00;99.90;;;;;;5039603;28;20037;-55
2023/09/04 01:36:45;;;;;;;3.40;3.10;;;14.00;99.90;;;;;;5039126;28;20048;-53
2023/09/04 01:39:11;;;;;;;4.00;3.60;;;14.00;99.90;;;;;;5037794;28;20055;-55
2023/09/04 01:41:41;;;;;;;3.92;3.55;;;14.00;99.90;;;;;;5042027;28;20053;-55
2023/09/04 01:44:07;;;;;;;3.83;3.53;;;14.00;99.90;;;;;;5030739;28;20119;-56
2023/09/04 01:46:33;;;;;;;5.03;3.25;;;13.90;99.90;;;;;;5037579;28;20137;-54
2023/09/04 01:48:59;;;;;;;6.63;4.60;;;13.90;99.90;;;;;;5038073;28;20120;-55
2023/09/04 01:51:25;;;;;;;4.38;3.95;;;13.90;99.90;;;;;;5042947;28;20037;-56
2023/09/04 01:53:50;;;;;;;5.32;4.82;;;13.90;99.90;;;;;;5039539;28;20032;-53
2023/09/04 01:56:16;;;;;;;5.07;4.57;;;13.90;99.90;;;;;;5038887;28;20048;-56
2023/09/04 01:58:42;;;;;;;4.80;4.30;;;13.90;99.90;;;;;;5038594;28;20037;-56
2023/09/04 02:01:08;;;;;;;5.22;4.05;;;13.80;99.90;;;;;;5039085;28;20178;-54
2023/09/04 02:03:33;;;;;;;5.07;4.55;;;13.80;99.90;;;;;;5040699;28;20048;-53
2023/09/04 02:05:59;;;;;;;7.70;6.60;;;13.80;99.90;;;;;;5039341;28;20578;-55
2023/09/04 02:08:25;;;;;;;7.15;6.45;;;13.80;99.90;;;;;;5037490;28;20052;-57
2023/09/04 02:10:51;;;;;;;7.10;6.13;;;13.80;99.90;;;;;;5033215;28;20052;-55
2023/09/04 02:13:17;;;;;;;6.25;4.97;;;13.80;99.90;;;;;;5040465;28;20037;-54
2023/09/04 02:15:42;;;;;;;5.05;4.30;;;13.80;99.90;;;;;;5039363;28;20039;-56
2023/09/04 02:18:08;;;;;;;5.45;4.13;;;13.80;99.90;;;;;;5041022;28;20107;-53
2023/09/04 02:20:34;;;;;;;5.35;4.57;;;13.80;99.90;;;;;;5024191;28;20464;-55
2023/09/04 02:23:00;;;;;;;6.22;4.47;;;13.80;99.90;;;;;;5040597;28;20166;-54
2023/09/04 02:25:26;;;;;;;5.93;5.22;;;13.80;99.90;;;;;;5040733;28;20482;-55
2023/09/04 02:27:52;;;;;;;9.90;6.80;;;13.70;99.90;;;;;;5040074;28;20052;-54
2023/09/04 02:30:18;;;;;;;7.90;6.50;;;13.70;99.90;;;;;;5039971;28;20451;-56
2023/09/04 02:32:44;;;;;;;8.55;6.97;;;13.70;99.90;;;;;;5040786;28;20097;-53
2023/09/04 02:35:10;;;;;;;6.88;6.18;;;13.70;99.90;;;;;;5039706;28;20792;-55
2023/09/04 02:37:36;;;;;;;8.23;6.38;;;13.70;99.90;;;;;;5039956;28;20044;-55
2023/09/04 02:40:01;;;;;;;6.07;5.00;;;13.70;99.90;;;;;;5040569;28;20034;-54
2023/09/04 02:42:30;;;;;;;5.38;4.88;;;13.70;99.90;;;;;;5040353;28;20048;-53
2023/09/04 02:44:56;;;;;;;5.32;4.32;;;13.70;99.90;;;;;;5040579;28;20539;-56
2023/09/04 02:47:22;;;;;;;6.60;4.70;;;13.60;99.90;;;;;;5039800;28;20041;-55
2023/09/04 02:49:47;;;;;;;6.70;4.40;;;13.60;99.90;;;;;;5039532;28;20061;-56
2023/09/04 02:52:14;;;;;;;5.25;4.75;;;13.60;99.90;;;;;;5036951;28;20652;-54
2023/09/04 02:54:40;;;;;;;5.45;4.82;;;13.60;99.90;;;;;;5039628;28;20479;-55
2023/09/04 02:57:06;;;;;;;6.00;5.35;;;13.50;99.90;;;;;;5040329;28;20044;-55
2023/09/04 02:59:34;;;;;;;5.78;5.18;;;13.50;99.90;;;;;;5023713;28;20445;-53
2023/09/04 03:01:59;;;;;;;7.70;6.03;;;13.50;99.90;;;;;;5037173;28;20039;-53
2023/09/04 03:04:25;;;;;;;6.93;5.95;;;13.50;99.90;;;;;;5038686;28;20045;-55
2023/09/04 03:06:51;;;;;;;7.43;5.60;;;13.50;99.90;;;;;;5043068;28;20086;-56
2023/09/04 03:09:16;;;;;;;7.03;4.97;;;13.50;99.90;;;;;;5041353;28;20609;-56
2023/09/04 03:11:42;;;;;;;6.40;5.72;;;13.50;99.90;;;;;;5046438;28;20052;-55
2023/09/04 03:14:08;;;;;;;5.70;5.10;;;13.40;99.90;;;;;;5044828;28;20129;-55
2023/09/04 03:16:34;;;;;;;9.43;6.60;;;13.40;99.90;;;;;;5046244;28;20048;-55
2023/09/04 03:18:59;;;;;;;7.03;6.32;;;13.40;99.90;;;;;;5039755;28;20363;-56
2023/09/04 03:21:25;;;;;;;7.65;6.10;;;13.40;99.90;;;;;;5047379;28;20098;-54
2023/09/04 03:23:51;;;;;;;8.00;6.07;;;13.40;99.90;;;;;;5044199;28;20556;-53
2023/09/04 03:26:17;;;;;;;7.05;6.35;;;13.40;99.90;;;;;;5048203;28;20056;-57
2023/09/04 03:28:43;;;;;;;6.72;6.00;;;13.40;99.90;;;;;;5050420;28;20135;-54
2023/09/04 03:31:15;;;;;;;4.78;4.28;;;13.40;99.90;;;;;;5039302;28;20051;-57
2023/09/04 03:33:41;;;;;;;5.80;4.27;;;13.40;99.90;;;;;;5036425;28;20123;-55
2023/09/04 03:36:09;;;;;;;4.30;3.90;;;13.40;99.90;;;;;;5036491;28;20298;-54
2023/09/04 03:38:35;;;;;;;4.22;3.53;;;13.30;99.90;;;;;;5033866;28;20044;-55
2023/09/04 03:41:01;;;;;;;4.38;3.65;;;13.30;99.90;;;;;;5035733;28;20045;-55
2023/09/04 03:43:28;;;;;;;3.75;3.00;;;13.30;99.90;;;;;;5033819;28;20104;-55
2023/09/04 03:45:55;;;;;;;5.18;4.68;;;13.30;99.90;;;;;;5034025;28;20037;-55
2023/09/04 03:48:20;;;;;;;8.23;6.60;;;13.30;99.90;;;;;;5039630;28;20035;-52
2023/09/04 03:50:46;;;;;;;7.07;6.22;;;13.30;99.90;;;;;;5032889;28;20798;-54
2023/09/04 03:53:12;;;;;;;9.02;7.38;;;13.30;99.90;;;;;;5036435;28;20053;-53
2023/09/04 03:55:37;;;;;;;9.57;8.05;;;13.30;99.90;;;;;;5033850;28;20227;-54
2023/09/04 03:58:03;;;;;;;10.07;8.00;;;13.30;99.90;;;;;;5034946;28;20878;-54
2023/09/04 04:00:30;;;;;;;8.48;7.68;;;13.20;99.90;;;;;;5036733;28;20079;-55
2023/09/04 04:02:57;;;;;;;7.65;6.88;;;13.20;99.90;;;;;;5044050;28;20120;-52
2023/09/04 04:05:23;;;;;;;6.45;5.85;;;13.20;99.90;;;;;;5041169;28;20044;-55
2023/09/04 04:07:49;;;;;;;6.97;6.25;;;13.20;99.90;;;;;;5042755;28;20425;-55
2023/09/04 04:10:15;;;;;;;7.53;5.90;;;13.20;99.90;;;;;;5042818;28;20073;-53
2023/09/04 04:12:41;;;;;;;8.38;5.57;;;13.20;99.90;;;;;;5043955;28;20151;-56
2023/09/04 04:15:08;;;;;;;6.00;5.45;;;13.20;99.90;;;;;;5044091;28;20040;-54
2023/09/04 04:17:35;;;;;;;3.80;3.47;;;13.20;99.90;;;;;;5044361;28;20041;-54
2023/09/04 04:20:01;;;;;;;2.90;2.70;;;13.10;99.90;;;;;;5037186;28;20506;-54
2023/09/04 04:22:27;;;;;;;2.70;2.50;;;13.00;99.90;;;;;;5043516;28;20057;-53
2023/09/04 04:24:52;;;;;;;2.90;2.70;;;13.00;99.90;;;;;;5047468;28;20281;-55
2023/09/04 04:27:18;;;;;;;3.08;2.78;;;13.00;99.90;;;;;;5039233;28;20037;-53
2023/09/04 04:29:45;;;;;;;5.75;3.65;;;12.90;99.90;;;;;;5041282;28;20499;-54
2023/09/04 04:32:11;;;;;;;4.15;3.75;;;12.90;99.90;;;;;;5041982;28;20045;-54
2023/09/04 04:34:36;;;;;;;4.68;4.05;;;12.90;99.90;;;;;;5041381;28;20052;-54
2023/09/04 04:37:04;;;;;;;4.93;4.10;;;12.80;99.90;;;;;;5041290;28;20387;-55
2023/09/04 04:39:29;;;;;;;5.43;4.47;;;12.90;99.90;;;;;;5044739;28;20483;-56
2023/09/04 04:41:55;;;;;;;5.03;3.97;;;12.90;99.90;;;;;;5042281;28;20041;-55
2023/09/04 04:44:21;;;;;;;4.95;4.30;;;12.90;99.90;;;;;;5045852;28;20039;-55
2023/09/04 04:46:47;;;;;;;3.80;3.40;;;12.80;99.90;;;;;;5044815;28;20553;-54
2023/09/04 04:49:21;;;;;;;5.10;4.35;;;12.90;99.90;;;;;;5040418;28;20064;-54
2023/09/04 04:51:49;;;;;;;6.75;5.20;;;12.80;99.90;;;;;;5044869;28;20045;-54
2023/09/04 04:54:15;;;;;;;5.22;4.50;;;12.80;99.90;;;;;;5045889;28;20041;-55
2023/09/04 04:56:41;;;;;;;5.50;4.20;;;12.80;99.90;;;;;;5047643;28;20041;-55
2023/09/04 04:59:08;;;;;;;4.40;4.00;;;12.80;99.90;;;;;;5047477;28;20049;-54
2023/09/04 05:01:34;;;;;;;6.80;4.20;;;12.80;99.90;;;;;;5024232;28;20330;-53
2023/09/04 05:04:00;;;;;;;5.00;4.50;;;12.80;99.90;;;;;;5047971;28;20479;-57
2023/09/04 05:06:26;;;;;;;6.65;4.90;;;12.80;99.90;;;;;;5044890;28;20201;-56
2023/09/04 05:08:52;;;;;;;6.32;4.90;;;12.80;99.90;;;;;;5044637;28;20082;-54
2023/09/04 05:11:18;;;;;;;6.43;5.35;;;12.80;99.90;;;;;;5043690;28;20040;-55
2023/09/04 05:13:44;;;;;;;5.55;4.95;;;12.80;99.90;;;;;;5040391;28;20127;-55
2023/09/04 05:16:09;;;;;;;5.38;4.85;;;12.80;99.90;;;;;;5044175;28;20203;-52
2023/09/04 05:18:35;;;;;;;5.82;5.20;;;12.80;99.90;;;;;;5036473;28;20499;-53
2023/09/04 05:21:05;;;;;;;5.90;5.00;;;12.80;99.90;;;;;;5039866;28;20040;-54
2023/09/04 05:23:31;;;;;;;5.70;4.85;;;12.80;99.90;;;;;;5038213;28;20060;-53
2023/09/04 05:25:56;;;;;;;7.32;5.13;;;12.80;99.90;;;;;;5038480;28;20091;-55
2023/09/04 05:28:23;;;;;;;4.93;4.43;;;12.80;99.90;;;;;;5041850;28;20364;-53
2023/09/04 05:30:48;;;;;;;5.97;4.60;;;12.90;99.90;;;;;;5035469;28;20111;-55
2023/09/04 05:33:14;;;;;;;6.63;4.78;;;12.90;99.90;;;;;;5035996;28;20056;-52
2023/09/04 05:35:40;;;;;;;9.07;5.93;;;12.90;99.90;;;;;;5039831;28;20040;-53
2023/09/04 05:38:06;;;;;;;9.70;6.05;;;12.90;99.90;;;;;;5036347;28;20049;-53
2023/09/04 05:40:32;;;;;;;7.95;5.68;;;12.90;99.90;;;;;;5037433;28;20495;-54
2023/09/04 05:42:57;;;;;;;9.02;6.97;;;12.90;99.90;;;;;;5045032;28;20045;-55
2023/09/04 05:45:23;;;;;;;9.60;7.53;;;13.00;99.90;;;;;;5038957;28;20033;-55
2023/09/04 05:47:50;;;;;;;9.10;6.65;;;13.00;99.90;;;;;;5038314;28;20037;-55
2023/09/04 05:50:15;;;;;;;7.80;6.72;;;13.10;99.90;;;;;;5036851;28;22014;-56
2023/09/04 05:52:41;;;;;;;10.23;7.00;;;13.20;99.90;;;;;;5038987;28;20094;-55
2023/09/04 05:55:08;;;;;;;7.22;6.25;;;13.20;99.90;;;;;;5032762;28;20063;-56
2023/09/04 05:57:35;;;;;;;10.18;8.00;;;13.20;99.90;;;;;;5042165;28;20044;-54
2023/09/04 06:00:02;;;;;;;11.43;7.28;;;13.30;99.90;;;;;;5038576;28;20026;-55
2023/09/04 06:02:28;;;;;;;11.90;8.25;;;13.30;99.90;;;;;;5037628;28;20048;-54
2023/09/04 06:04:54;;;;;;;9.98;8.00;;;13.40;99.90;;;;;;5037818;28;20039;-54
2023/09/04 06:07:20;;;;;;;10.63;8.27;;;13.50;99.90;;;;;;5036168;28;20048;-58
2023/09/04 06:09:45;;;;;;;16.75;8.68;;;13.50;99.90;;;;;;5033006;28;20554;-57
2023/09/04 06:12:12;;;;;;;15.48;9.02;;;13.60;99.90;;;;;;5043496;28;20116;-58
2023/09/04 06:14:38;;;;;;;11.57;8.63;;;13.60;99.90;;;;;;5041519;28;20049;-57
2023/09/04 06:17:04;;;;;;;13.32;9.43;;;13.70;99.90;;;;;;5034263;28;20044;-56
2023/09/04 06:19:30;;;;;;;12.82;9.18;;;13.80;99.90;;;;;;5046502;28;20051;-58
2023/09/04 06:21:57;;;;;;;12.88;9.75;;;13.90;99.90;;;;;;5044903;28;20089;-56
2023/09/04 06:24:22;;;;;;;11.43;9.30;;;13.90;99.90;;;;;;5046585;28;20471;-57
2023/09/04 06:26:48;;;;;;;12.23;9.20;;;14.00;99.90;;;;;;5045954;28;20037;-57
2023/09/04 06:29:17;;;;;;;11.95;9.30;;;14.10;99.90;;;;;;5044815;28;20036;-58
2023/09/04 06:31:42;;;;;;;12.30;9.25;;;14.20;99.90;;;;;;5045129;28;20086;-57
2023/09/04 06:34:09;;;;;;;11.88;9.25;;;14.30;99.90;;;;;;5046483;28;20171;-58
2023/09/04 06:36:35;;;;;;;12.85;9.23;;;14.40;99.90;;;;;;5040339;28;20047;-56
2023/09/04 06:39:03;;;;;;;12.07;8.73;;;14.50;99.90;;;;;;5032407;28;20072;-56
2023/09/04 06:41:31;;;;;;;12.82;9.32;;;14.60;99.90;;;;;;5033856;28;20106;-56
2023/09/04 06:43:57;;;;;;;16.77;9.43;;;14.70;99.90;;;;;;5032364;28;20127;-57
2023/09/04 06:46:23;;;;;;;13.50;9.95;;;14.80;99.90;;;;;;5039588;28;20487;-57
2023/09/04 06:48:49;;;;;;;11.13;8.60;;;14.80;99.90;;;;;;5044360;28;20043;-57
2023/09/04 06:51:16;;;;;;;12.32;8.32;;;14.90;99.90;;;;;;5045619;28;20527;-56
2023/09/04 06:53:42;;;;;;;10.82;8.55;;;15.00;99.90;;;;;;5048788;28;20122;-56
2023/09/04 06:56:08;;;;;;;14.10;8.57;;;15.10;99.90;;;;;;5039362;28;20040;-56
2023/09/04 06:58:34;;;;;;;11.30;7.80;;;15.20;99.90;;;;;;5045240;28;20094;-58
2023/09/04 07:01:03;;;;;;;11.80;7.93;;;15.30;99.90;;;;;;5037609;28;20045;-56
2023/09/04 07:03:29;;;;;;;11.30;7.57;;;15.40;99.90;;;;;;5037154;28;20063;-57
2023/09/04 07:05:56;;;;;;;8.35;6.57;;;15.50;99.90;;;;;;5036012;28;20175;-57
2023/09/04 07:08:22;;;;;;;11.85;6.43;;;15.50;99.90;;;;;;5038932;28;20633;-56
2023/09/04 07:10:48;;;;;;;12.00;6.82;;;15.60;99.90;;;;;;5040516;28;20073;-57
2023/09/04 07:13:15;;;;;;;8.18;6.97;;;15.70;99.90;;;;;;5041211;28;20067;-57
2023/09/04 07:15:41;;;;;;;8.70;6.53;;;15.70;99.90;;;;;;5038831;28;20045;-56
2023/09/04 07:18:08;;;;;;;12.00;6.70;;;15.80;99.90;;;;;;5037628;28;20609;-56
2023/09/04 07:20:33;;;;;;;8.70;6.30;;;15.90;99.90;;;;;;5039815;28;20055;-58
2023/09/04 07:22:59;;;;;;;8.10;6.18;;;16.00;99.90;;;;;;5038078;28;20048;-56
2023/09/04 07:25:25;;;;;;;11.00;6.00;;;16.10;99.90;;;;;;5038515;28;20037;-57
2023/09/04 07:27:51;;;;;;;9.00;6.00;;;16.20;99.90;;;;;;5044460;28;20491;-58
2023/09/04 07:30:16;;;;;;;7.30;6.00;;;16.40;99.90;;;;;;5035482;28;20118;-58
2023/09/04 07:32:42;;;;;;;6.60;5.45;;;16.40;99.90;;;;;;5046953;28;20407;-56
2023/09/04 07:35:09;;;;;;;10.82;5.20;;;16.60;99.90;;;;;;5044184;28;20133;-58
2023/09/04 07:37:34;;;;;;;6.68;5.30;;;16.70;99.90;;;;;;5042782;28;20084;-55
2023/09/04 07:40:00;;;;;;;7.90;5.40;;;16.80;99.90;;;;;;5042684;28;20804;-58
2023/09/04 07:42:26;;;;;;;6.47;5.32;;;17.00;99.90;;;;;;5041360;28;20421;-57
2023/09/04 07:44:52;;;;;;;6.63;5.18;;;17.20;99.90;;;;;;5042139;28;20079;-56
2023/09/04 07:47:17;;;;;;;10.85;5.72;;;17.30;99.90;;;;;;5041833;28;20559;-58
2023/09/04 07:49:43;;;;;;;6.88;5.88;;;17.50;99.90;;;;;;5043823;28;20044;-58
2023/09/04 07:52:09;;;;;;;8.15;5.75;;;17.60;99.90;;;;;;5042604;28;20455;-58
2023/09/04 07:54:35;;;;;;;7.72;4.93;;;17.70;99.90;;;;;;5041010;28;20106;-58
2023/09/04 07:57:04;;;;;;;7.20;5.43;;;17.80;99.90;;;;;;5041844;28;20055;-57
2023/09/04 07:59:30;;;;;;;6.93;5.10;;;18.00;99.90;;;;;;5044040;28;20076;-58
2023/09/04 08:01:55;;;;;;;7.88;5.22;;;18.10;99.90;;;;;;5046543;28;20111;-57
2023/09/04 08:04:21;;;;;;;7.70;5.00;;;18.20;99.90;;;;;;5047313;28;20040;-56
2023/09/04 08:06:47;;;;;;;8.00;4.65;;;18.30;99.90;;;;;;5051518;28;20143;-56
2023/09/04 08:09:13;;;;;;;6.65;4.55;;;18.50;99.90;;;;;;5046257;28;20532;-56
2023/09/04 08:11:39;;;;;;;6.30;5.10;;;18.60;99.90;;;;;;5048118;28;20043;-58
2023/09/04 08:14:05;;;;;;;5.30;4.68;;;18.80;99.90;;;;;;5045553;28;20085;-57
2023/09/04 08:16:31;;;;;;;6.70;4.65;;;18.90;99.90;;;;;;5046964;28;20085;-56
2023/09/04 08:18:57;;;;;;;5.97;4.40;;;19.10;99.90;;;;;;5030815;28;20121;-58
2023/09/04 08:21:22;;;;;;;5.68;4.22;;;19.10;99.90;;;;;;5036877;28;20636;-55
2023/09/04 08:23:48;;;;;;;8.10;4.60;;;19.30;99.90;;;;;;5038012;28;20049;-58
2023/09/04 08:26:15;;;;;;;6.32;4.22;;;19.40;99.90;;;;;;5034970;28;20045;-58
2023/09/04 08:28:41;;;;;;;6.43;4.15;;;19.50;99.90;;;;;;5041081;28;20321;-59
2023/09/04 08:31:07;;;;;;;9.70;4.20;;;19.60;99.90;;;;;;5042837;28;20052;-56
2023/09/04 08:33:34;;;;;;;5.90;4.03;;;19.80;99.90;;;;;;5040975;28;20044;-58
2023/09/04 08:36:00;;;;;;;6.90;3.67;;;19.90;99.90;;;;;;5044140;28;20166;-56
2023/09/04 08:38:29;;;;;;;8.02;3.70;;;20.10;99.90;;;;;;5044969;28;20149;-54
2023/09/04 08:40:58;;;;;;;6.32;3.45;;;20.20;99.90;;;;;;5042165;28;20093;-57
2023/09/04 08:43:29;;;;;;;5.13;3.20;;;20.30;99.90;;;;;;5046660;28;20037;-57
2023/09/04 08:45:58;;;;;;;8.40;3.83;;;20.50;99.90;;;;;;5036679;28;20491;-59
2023/09/04 08:48:28;;;;;;;4.25;3.35;;;20.50;99.90;;;;;;5041893;28;20036;-59
2023/09/04 08:50:55;;;;;;;7.03;3.15;;;20.70;99.90;;;;;;5044583;28;20372;-59
2023/09/04 08:53:22;;;;;;;6.25;3.10;;;20.80;99.90;;;;;;5044199;28;20036;-58
2023/09/04 08:55:49;;;;;;;5.93;3.42;;;20.90;99.90;;;;;;5043315;28;20041;-59
2023/09/04 08:58:16;;;;;;;4.28;2.90;;;21.00;99.90;;;;;;5043122;28;20053;-56
2023/09/04 09:00:46;;;;;;;3.05;2.80;;;21.10;99.90;;;;;;5036614;28;20041;-57
2023/09/04 09:03:14;;;;;;;4.70;2.75;;;21.20;99.90;;;;;;5036049;28;20176;-56
2023/09/04 09:05:42;;;;;;;5.45;2.88;;;21.30;99.90;;;;;;5039519;28;20067;-58
2023/09/04 09:08:09;;;;;;;4.00;2.80;;;21.40;99.90;;;;;;5044063;28;20044;-58
2023/09/04 09:10:35;;;;;;;4.85;3.05;;;21.50;99.90;;;;;;5039594;28;20045;-57
2023/09/04 09:13:01;;;;;;;3.85;3.28;;;21.60;99.90;;;;;;5044564;28;20471;-58
2023/09/04 09:15:30;;;;;;;3.30;2.58;;;21.70;99.90;;;;;;5042050;28;20418;-59
2023/09/04 09:17:57;;;;;;;6.65;2.55;;;21.70;99.90;;;;;;5048227;28;20062;-55
2023/09/04 09:20:33;;;;;;;4.82;2.65;;;21.90;99.90;;;;;;5040237;28;20090;-58
2023/09/04 09:23:00;;;;;;;3.60;2.53;;;22.00;99.90;;;;;;5043278;28;20049;-58
2023/09/04 09:25:29;;;;;;;5.65;2.40;;;22.10;99.90;;;;;;5042812;28;20052;-58
2023/09/04 09:28:06;;;;;;;7.20;2.70;;;22.20;99.90;;;;;;5041800;28;20128;-57
2023/09/04 09:30:39;;;;;;;3.85;2.85;;;22.30;99.90;;;;;;5012654;28;20044;-59
2023/09/04 09:33:09;;;;;;;3.33;2.50;;;22.40;99.90;;;;;;5038875;28;20040;-59
2023/09/04 09:35:35;;;;;;;4.53;2.40;;;22.50;99.90;;;;;;5045227;28;20067;-58
2023/09/04 09:38:01;;;;;;;4.80;2.65;;;22.70;99.90;;;;;;5045619;28;20037;-58
2023/09/04 09:40:27;;;;;;;3.17;2.67;;;22.80;99.90;;;;;;5043817;28;20056;-58
2023/09/04 09:42:53;;;;;;;4.10;2.53;;;22.90;99.90;;;;;;5043418;28;20128;-58
2023/09/04 09:45:19;;;;;;;4.38;2.50;;;23.00;99.80;;;;;;5042482;28;20044;-59
2023/09/04 09:47:45;;;;;;;2.42;2.10;;;23.00;99.60;;;;;;5036526;28;20124;-59
2023/09/04 09:50:13;;;;;;;2.85;2.20;;;23.20;99.90;;;;;;5047133;28;20048;-57
2023/09/04 09:52:56;;;;;;;3.70;2.35;;;23.40;99.80;;;;;;5042660;28;20493;-58
2023/09/04 09:55:26;;;;;;;2.97;2.10;;;23.50;99.50;;;;;;5045437;28;20040;-60
2023/09/04 09:57:54;;;;;;;3.30;2.00;;;23.70;99.40;;;;;;5041301;28;20041;-59
2023/09/04 10:00:19;;;;;;;3.40;2.40;;;23.80;98.90;;;;;;5043790;28;20037;-57
2023/09/04 10:02:46;;;;;;;3.45;2.28;;;23.80;98.40;;;;;;5045546;28;20029;-59
2023/09/04 10:05:11;;;;;;;5.15;2.40;;;23.90;98.40;;;;;;5046218;28;20510;-59
2023/09/04 10:07:38;;;;;;;3.53;2.00;;;24.00;98.30;;;;;;5045244;28;20115;-59
2023/09/04 10:10:06;;;;;;;4.53;2.28;;;24.10;97.90;;;;;;5041273;28;20045;-58
2023/09/04 10:12:38;;;;;;;5.10;2.25;;;24.30;97.50;;;;;;5044683;28;20075;-58
2023/09/04 10:15:07;;;;;;;2.70;2.50;;;24.40;97.10;;;;;;5043637;28;20402;-55
2023/09/04 10:17:59;;;;;;;2.47;2.25;;;24.60;96.80;;;;;;5043783;28;20496;-56
2023/09/04 10:20:26;;;;;;;5.78;2.67;;;24.60;96.60;;;;;;5046779;28;20092;-59
2023/09/04 10:23:07;;;;;;;3.70;2.38;;;24.80;96.40;;;;;;5044432;28;20099;-59
2023/09/04 10:25:49;;;;;;;4.13;2.47;;;24.90;95.90;;;;;;5043082;28;20053;-59
2023/09/04 10:28:36;;;;;;;2.83;2.30;;;25.00;95.50;;;;;;5047253;28;20036;-59
2023/09/04 10:31:03;;;;;;;4.68;2.70;;;25.00;95.20;;;;;;5042319;28;20055;-59
2023/09/04 10:33:29;;;;;;;4.00;2.60;;;25.10;94.40;;;;;;5045301;28;20032;-59
2023/09/04 10:35:55;;;;;;;3.80;2.08;;;25.20;94.30;;;;;;5040790;28;20044;-57
2023/09/04 10:38:25;;;;;;;4.97;2.20;;;25.20;94.00;;;;;;5025189;28;20086;-57
2023/09/04 10:40:52;;;;;;;4.15;2.78;;;25.30;93.30;;;;;;5044074;28;20097;-59
2023/09/04 10:43:18;;;;;;;3.08;2.30;;;25.30;92.40;;;;;;5044612;28;20055;-59
2023/09/04 10:46:04;;;;;;;3.53;2.13;;;25.40;91.90;;;;;;5041676;28;20118;-58
2023/09/04 10:48:50;;;;;;;4.70;2.05;;;25.40;91.90;;;;;;5035295;28;20045;-57
2023/09/04 10:51:31;;;;;;;1.85;1.70;;;25.50;91.20;;;;;;5031984;28;20045;-58
2023/09/04 10:54:02;;;;;;;7.03;2.35;;;25.60;91.00;;;;;;5042710;28;20049;-58
2023/09/04 10:56:28;;;;;;;2.53;2.00;;;25.70;91.20;;;;;;5044352;28;20145;-59
2023/09/04 10:59:05;;;;;;;3.38;2.03;;;25.80;91.10;;;;;;5041170;28;20052;-58
2023/09/04 11:01:38;;;;;;;3.22;1.70;;;25.90;90.80;;;;;;5041275;28;20222;-58
2023/09/04 11:04:08;;;;;;;3.50;1.90;;;26.00;90.80;;;;;;5039448;28;20047;-59
2023/09/04 11:06:41;;;;;;;2.05;1.85;;;26.20;90.30;;;;;;5041059;28;20041;-59
2023/09/04 11:09:11;;;;;;;3.63;2.13;;;26.30;90.20;;;;;;5043556;28;20044;-57
2023/09/04 11:11:38;;;;;;;3.22;2.08;;;26.40;89.30;;;;;;5040581;28;20049;-59
2023/09/04 11:14:09;;;;;;;2.03;1.83;;;26.50;89.20;;;;;;5049281;28;20051;-59
2023/09/04 11:16:40;;;;;;;4.95;2.05;;;26.60;88.90;;;;;;5043121;28;20517;-59
2023/09/04 11:19:10;;;;;;;3.13;2.00;;;26.70;88.60;;;;;;5042391;28;20044;-59
2023/09/04 11:21:38;;;;;;;4.18;2.00;;;26.80;86.90;;;;;;5043241;28;20049;-58
2023/09/04 11:24:04;;;;;;;3.55;1.70;;;26.80;86.10;;;;;;5043196;28;20590;-58
2023/09/04 11:26:31;;;;;;;2.00;1.80;;;26.90;85.30;;;;;;5042736;28;20048;-58
2023/09/04 11:28:58;;;;;;;2.40;1.65;;;27.00;84.20;;;;;;5042064;28;20051;-57
2023/09/04 11:31:26;;;;;;;4.00;2.30;;;27.10;83.70;;;;;;5045318;28;20056;-59
2023/09/04 11:33:52;;;;;;;3.70;1.98;;;27.30;84.30;;;;;;5041470;28;20475;-58
2023/09/04 11:36:18;;;;;;;2.63;1.85;;;27.40;84.30;;;;;;5044635;28;20170;-58
2023/09/04 11:38:44;;;;;;;3.42;2.00;;;27.60;82.30;;;;;;5043505;28;20149;-58
2023/09/04 11:41:20;;;;;;;2.00;1.80;;;27.60;80.60;;;;;;5047067;28;20240;-59
2023/09/04 11:43:46;;;;;;;3.20;1.90;;;27.60;81.10;;;;;;5048278;28;20513;-56
2023/09/04 11:46:12;;;;;;;2.65;1.83;;;27.50;80.40;;;;;;5047262;28;20568;-57
2023/09/04 11:48:38;;;;;;;3.78;1.70;;;27.50;80.80;;;;;;5045168;28;20144;-58
2023/09/04 11:51:04;;;;;;;3.40;1.70;;;27.60;81.50;;;;;;5049261;28;20073;-57
2023/09/04 11:53:31;;;;;;;2.15;1.70;;;27.70;81.40;;;;;;5045339;28;20104;-59
2023/09/04 11:55:57;;;;;;;1.70;1.50;;;27.90;79.70;;;;;;5046987;28;20076;-59
2023/09/04 11:58:23;;;;;;;3.15;1.42;;;27.90;79.60;;;;;;5044500;28;20047;-59
2023/09/04 12:00:49;;;;;;;6.13;1.80;;;27.90;79.00;;;;;;5041384;28;20479;-58
2023/09/04 12:03:15;;;;;;;3.17;1.55;;;28.00;78.50;;;;;;5044236;28;20045;-59
2023/09/04 12:05:41;;;;;;;3.38;1.77;;;28.10;78.20;;;;;;5044330;28;20060;-56
2023/09/04 12:08:07;;;;;;;10.32;1.95;;;28.20;77.70;;;;;;5040577;28;20041;-58
2023/09/04 12:10:34;;;;;;;8.93;2.10;;;28.30;77.30;;;;;;5042179;28;20515;-59
2023/09/04 12:13:01;;;;;;;4.35;1.48;;;28.40;75.90;;;;;;5044703;28;20047;-58
2023/09/04 12:15:33;;;;;;;3.30;1.58;;;28.50;75.50;;;;;;5043813;28;20044;-58
2023/09/04 12:18:00;;;;;;;;;;;28.60;75.60;;;;;;5059951;28;20048;-59
2023/09/04 12:20:30;;;;;;;5.20;1.98;;;28.70;76.90;;;;;;5039661;28;19921;-59
2023/09/04 12:22:57;;;;;;;3.72;1.55;;;28.70;73.80;;;;;;5045356;28;20072;-60
2023/09/04 12:25:32;;;;;;;1.55;1.45;;;28.60;73.30;;;;;;5043271;28;20049;-60
2023/09/04 12:27:58;;;;;;;2.03;1.50;;;28.50;72.10;;;;;;5040747;28;20045;-58
2023/09/04 12:30:24;;;;;;;2.65;1.63;;;28.50;71.50;;;;;;5042032;28;20094;-58
2023/09/04 12:32:50;;;;;;;4.40;1.45;;;28.40;71.30;;;;;;5046933;28;20071;-61
2023/09/04 12:35:19;;;;;;;3.55;1.42;;;28.50;71.50;;;;;;5045206;28;20884;-59
2023/09/04 12:37:45;;;;;;;2.42;1.40;;;28.60;71.20;;;;;;5041128;28;20044;-61
2023/09/04 12:40:11;;;;;;;4.18;1.42;;;28.70;71.10;;;;;;5044485;28;20104;-61
2023/09/04 12:42:38;;;;;;;2.30;1.60;;;28.90;70.70;;;;;;5044383;28;20506;-60
2023/09/04 12:45:06;;;;;;;3.08;1.35;;;29.00;69.50;;;;;;5042284;28;20045;-59